Time;durP1;ratioP1;P1;durP2;ratioP2;P2;SDS_P1;SDS_P2;PMS_P1;PMS_P2;Temp;Humidity;BMP_temperature;BMP_pressure;BME280_temperature;BME280_humidity;BME280_pressure;Samples;Min_cycle;Max_cycle;Signal;HPM_P1;HPM_P2
2022/02/19 00:02:13;;;;;;;0.70;0.50;;;5.80;99.90;;;;;;5118056;28;20204;-77
2022/02/19 00:04:42;;;;;;;1.08;0.50;;;5.70;99.90;;;;;;5118007;28;20192;-80
2022/02/19 00:07:08;;;;;;;0.60;0.50;;;5.70;99.90;;;;;;5117674;27;20254;-79
2022/02/19 00:09:35;;;;;;;2.70;1.23;;;5.60;99.90;;;;;;5117650;28;20193;-79
2022/02/19 00:12:02;;;;;;;0.60;0.50;;;5.60;99.90;;;;;;5118442;28;20257;-79
2022/02/19 00:14:28;;;;;;;0.90;0.90;;;5.50;99.90;;;;;;5117168;27;20193;-79
2022/02/19 00:16:55;;;;;;;1.00;0.90;;;5.60;99.90;;;;;;5117924;28;20242;-81
2022/02/19 00:19:22;;;;;;;0.85;0.70;;;5.60;99.90;;;;;;5117334;28;20235;-79
2022/02/19 00:21:50;;;;;;;1.98;0.60;;;5.60;99.90;;;;;;5117613;28;20200;-78
2022/02/19 00:24:16;;;;;;;1.02;0.90;;;5.60;99.90;;;;;;5118033;28;20317;-77
2022/02/19 00:26:43;;;;;;;1.25;0.88;;;5.60;99.90;;;;;;5117585;28;20196;-79
2022/02/19 00:29:10;;;;;;;1.67;0.95;;;5.70;99.90;;;;;;5118412;28;20239;-77
2022/02/19 00:31:36;;;;;;;0.60;0.50;;;5.70;99.90;;;;;;5118143;28;20200;-78
2022/02/19 00:34:03;;;;;;;0.50;0.50;;;5.70;99.90;;;;;;5117804;28;20535;-79
2022/02/19 00:36:30;;;;;;;1.40;0.90;;;5.70;99.90;;;;;;5117059;28;20196;-79
2022/02/19 00:38:58;;;;;;;0.70;0.50;;;5.70;99.90;;;;;;5117461;28;20277;-79
2022/02/19 00:41:25;;;;;;;2.55;0.95;;;5.70;99.90;;;;;;5117501;28;20212;-78
2022/02/19 00:43:52;;;;;;;1.33;1.33;;;5.70;99.90;;;;;;5117057;28;20192;-79
2022/02/19 00:46:19;;;;;;;0.60;0.57;;;5.70;99.90;;;;;;5116865;28;20201;-77
2022/02/19 00:48:46;;;;;;;0.50;0.40;;;5.70;99.90;;;;;;5116862;28;20222;-79
2022/02/19 00:51:12;;;;;;;0.80;0.60;;;5.70;99.90;;;;;;5116640;28;20197;-78
2022/02/19 00:53:39;;;;;;;1.25;0.50;;;5.60;99.90;;;;;;5117075;27;20625;-79
2022/02/19 00:56:09;;;;;;;5.38;1.65;;;5.60;99.90;;;;;;5116673;28;20600;-78
2022/02/19 00:58:36;;;;;;;1.48;1.38;;;5.70;99.90;;;;;;5116467;28;20220;-79
2022/02/19 01:01:03;;;;;;;0.60;0.60;;;5.60;99.90;;;;;;5116628;28;20225;-80
2022/02/19 01:03:31;;;;;;;1.55;0.80;;;5.60;99.90;;;;;;5117673;28;20193;-78
2022/02/19 01:05:58;;;;;;;12.23;1.77;;;5.60;99.90;;;;;;5117302;28;20236;-78
2022/02/19 01:08:25;;;;;;;2.45;0.82;;;5.50;99.90;;;;;;5121243;28;20209;-79
2022/02/19 01:10:52;;;;;;;1.33;1.25;;;5.50;99.90;;;;;;5124633;28;20184;-80
2022/02/19 01:13:20;;;;;;;2.50;1.05;;;5.50;99.90;;;;;;5125905;28;20245;-78
2022/02/19 01:15:47;;;;;;;1.10;1.10;;;5.50;99.90;;;;;;5125225;28;20204;-80
2022/02/19 01:18:13;;;;;;;0.50;0.40;;;5.50;99.90;;;;;;5126182;28;20230;-78
2022/02/19 01:20:42;;;;;;;0.50;0.50;;;5.50;99.90;;;;;;5124339;27;20242;-78
2022/02/19 01:23:09;;;;;;;0.50;0.40;;;5.50;99.90;;;;;;5127536;27;20200;-79
2022/02/19 01:25:35;;;;;;;0.70;0.70;;;5.50;99.90;;;;;;5126206;28;20245;-79
2022/02/19 01:28:02;;;;;;;5.45;0.90;;;5.50;99.90;;;;;;5125978;28;20238;-79
2022/02/19 01:30:30;;;;;;;0.50;0.40;;;5.40;99.90;;;;;;5121749;28;20612;-77
2022/02/19 01:32:57;;;;;;;0.60;0.50;;;5.50;99.90;;;;;;5123486;28;20180;-77
2022/02/19 01:35:24;;;;;;;0.50;0.50;;;5.50;99.90;;;;;;5125039;28;20569;-79
2022/02/19 01:37:52;;;;;;;1.02;1.02;;;5.50;99.90;;;;;;5124569;28;20213;-79
2022/02/19 01:40:18;;;;;;;0.82;0.82;;;5.60;99.90;;;;;;5123655;28;20637;-79
2022/02/19 01:42:45;;;;;;;0.50;0.50;;;5.70;99.90;;;;;;5125235;28;20249;-78
2022/02/19 01:45:14;;;;;;;0.50;0.40;;;5.70;99.90;;;;;;5124887;28;20196;-79
2022/02/19 01:47:43;;;;;;;0.60;0.50;;;5.70;99.90;;;;;;5124818;28;20248;-79
2022/02/19 01:50:11;;;;;;;6.00;2.28;;;5.70;99.90;;;;;;5124592;28;20204;-79
2022/02/19 01:52:39;;;;;;;0.60;0.50;;;5.70;99.90;;;;;;5125304;28;20196;-79
2022/02/19 01:55:07;;;;;;;1.20;1.10;;;5.70;99.90;;;;;;5123113;28;20197;-78
2022/02/19 01:57:35;;;;;;;0.50;0.40;;;5.70;99.90;;;;;;5124328;28;20220;-80
2022/02/19 02:00:02;;;;;;;8.60;1.25;;;5.70;99.90;;;;;;5124756;28;20192;-79
2022/02/19 02:02:28;;;;;;;1.17;1.08;;;5.70;99.90;;;;;;5123430;28;20189;-79
2022/02/19 02:04:56;;;;;;;1.95;0.60;;;5.80;99.90;;;;;;5128054;28;20196;-78
2022/02/19 02:07:23;;;;;;;0.50;0.40;;;5.70;99.90;;;;;;5126238;28;20222;-79
2022/02/19 02:09:51;;;;;;;0.50;0.40;;;5.70;99.90;;;;;;5127446;28;20270;-78
2022/02/19 02:12:19;;;;;;;0.50;0.50;;;5.70;99.90;;;;;;5127538;28;20199;-79
2022/02/19 02:14:46;;;;;;;0.50;0.40;;;5.70;99.90;;;;;;5125217;28;20189;-79
2022/02/19 02:17:13;;;;;;;0.80;0.80;;;5.70;99.90;;;;;;5126710;28;20250;-78
2022/02/19 02:19:41;;;;;;;0.60;0.60;;;5.70;99.90;;;;;;5125485;28;20218;-79
2022/02/19 02:22:11;;;;;;;5.55;1.80;;;5.70;99.90;;;;;;5128301;28;20216;-79
2022/02/19 02:24:39;;;;;;;0.50;0.50;;;5.70;99.90;;;;;;5123307;28;20254;-79
2022/02/19 02:27:07;;;;;;;1.85;0.82;;;5.70;99.90;;;;;;5121438;28;20189;-80
2022/02/19 02:29:40;;;;;;;0.75;0.70;;;5.70;99.90;;;;;;5125643;28;20188;-79
2022/02/19 02:32:08;;;;;;;0.60;0.60;;;5.70;99.90;;;;;;5126093;28;20189;-79
2022/02/19 02:34:34;;;;;;;0.50;0.45;;;5.70;99.90;;;;;;5127626;28;20197;-78
2022/02/19 02:37:01;;;;;;;0.50;0.45;;;5.70;99.90;;;;;;5122159;28;20199;-80
2022/02/19 02:39:29;;;;;;;1.25;0.77;;;5.70;99.90;;;;;;5122180;28;20212;-79
2022/02/19 02:41:56;;;;;;;0.90;0.70;;;5.80;99.90;;;;;;5124328;28;20217;-80
2022/02/19 02:44:22;;;;;;;0.50;0.40;;;5.80;99.90;;;;;;5124508;28;20690;-80
2022/02/19 02:46:50;;;;;;;3.15;0.70;;;5.80;99.90;;;;;;5124565;28;20766;-79
2022/02/19 02:49:17;;;;;;;0.60;0.60;;;5.80;99.90;;;;;;5122897;28;20280;-79
2022/02/19 02:51:43;;;;;;;0.50;0.40;;;5.80;99.90;;;;;;5129004;28;20212;-79
2022/02/19 02:54:10;;;;;;;0.50;0.40;;;5.70;99.90;;;;;;5126564;28;20280;-80
2022/02/19 02:56:38;;;;;;;3.33;1.17;;;5.80;99.90;;;;;;5127316;28;20192;-79
2022/02/19 02:59:05;;;;;;;0.60;0.50;;;5.80;99.90;;;;;;5126027;28;20213;-80
2022/02/19 03:01:31;;;;;;;2.55;2.35;;;5.70;99.90;;;;;;5125372;28;20212;-80
2022/02/19 03:03:58;;;;;;;0.50;0.40;;;5.70;99.90;;;;;;5127518;28;20193;-80
2022/02/19 03:06:24;;;;;;;0.50;0.40;;;5.70;99.90;;;;;;5130861;28;20196;-79
2022/02/19 03:08:51;;;;;;;1.27;0.60;;;5.70;99.90;;;;;;5126538;28;20276;-79
2022/02/19 03:11:18;;;;;;;0.50;0.40;;;5.70;99.90;;;;;;5128094;28;20192;-79
2022/02/19 03:13:46;;;;;;;0.50;0.40;;;5.70;99.90;;;;;;5127908;28;20206;-79
2022/02/19 03:16:13;;;;;;;0.50;0.40;;;5.70;99.90;;;;;;5129322;28;20273;-79
2022/02/19 03:18:39;;;;;;;1.35;1.08;;;5.70;99.90;;;;;;5127545;28;20213;-79
2022/02/19 03:21:06;;;;;;;3.00;0.88;;;5.70;99.90;;;;;;5128609;28;20235;-79
2022/02/19 03:23:33;;;;;;;1.00;0.80;;;5.70;99.90;;;;;;5125966;28;20338;-80
2022/02/19 03:26:00;;;;;;;0.65;0.65;;;5.60;99.90;;;;;;5125228;27;20566;-80
2022/02/19 03:28:28;;;;;;;0.60;0.50;;;5.60;99.90;;;;;;5132366;27;20217;-79
2022/02/19 03:30:56;;;;;;;0.70;0.60;;;5.60;99.90;;;;;;5132777;28;20193;-78
2022/02/19 03:33:22;;;;;;;0.50;0.40;;;5.60;99.90;;;;;;5132709;28;20238;-79
2022/02/19 03:35:49;;;;;;;0.50;0.40;;;5.60;99.90;;;;;;5122832;27;20197;-79
2022/02/19 03:38:16;;;;;;;0.50;0.40;;;5.50;99.90;;;;;;5118752;28;20705;-80
2022/02/19 03:40:43;;;;;;;0.77;0.77;;;5.50;99.90;;;;;;5118801;28;20232;-80
2022/02/19 03:43:10;;;;;;;3.53;1.77;;;5.40;99.90;;;;;;5121490;28;20706;-79
2022/02/19 03:45:38;;;;;;;1.15;0.93;;;5.40;99.90;;;;;;5119718;28;20189;-80
2022/02/19 03:48:06;;;;;;;0.60;0.60;;;5.40;99.90;;;;;;5119204;28;20270;-79
2022/02/19 03:50:33;;;;;;;0.50;0.40;;;5.40;99.90;;;;;;5117905;28;20200;-79
2022/02/19 03:53:00;;;;;;;2.05;0.85;;;5.40;99.90;;;;;;5118793;28;20596;-79
2022/02/19 03:55:27;;;;;;;1.23;1.05;;;5.40;99.90;;;;;;5120157;28;20258;-80
2022/02/19 03:57:54;;;;;;;0.50;0.40;;;5.40;99.90;;;;;;5118934;28;20217;-80
2022/02/19 04:00:20;;;;;;;0.70;0.70;;;5.40;99.90;;;;;;5117679;28;20192;-80
2022/02/19 04:02:47;;;;;;;1.23;1.23;;;5.40;99.90;;;;;;5119053;28;20627;-80
2022/02/19 04:05:16;;;;;;;0.50;0.40;;;5.40;99.90;;;;;;5117798;28;20189;-80
2022/02/19 04:07:44;;;;;;;0.50;0.50;;;5.40;99.90;;;;;;5117775;28;20217;-80
2022/02/19 04:10:11;;;;;;;0.50;0.40;;;5.40;99.90;;;;;;5117452;28;20200;-80
2022/02/19 04:12:38;;;;;;;1.30;0.70;;;5.40;99.90;;;;;;5117303;28;20603;-79
2022/02/19 04:15:06;;;;;;;0.73;0.73;;;5.40;99.90;;;;;;5117734;28;20192;-79
2022/02/19 04:17:32;;;;;;;0.50;0.40;;;5.40;99.90;;;;;;5117547;28;20500;-80
2022/02/19 04:19:59;;;;;;;0.60;0.60;;;5.40;99.90;;;;;;5116897;28;20574;-80
2022/02/19 04:22:27;;;;;;;0.60;0.60;;;5.40;99.90;;;;;;5117835;28;20212;-79
2022/02/19 04:24:54;;;;;;;1.13;0.65;;;5.40;99.90;;;;;;5122059;28;20662;-80
2022/02/19 04:27:21;;;;;;;20.73;1.80;;;5.40;99.90;;;;;;5126139;28;20192;-79
2022/02/19 04:29:48;;;;;;;0.52;0.45;;;5.40;99.90;;;;;;5125418;28;20196;-80
2022/02/19 04:32:15;;;;;;;0.93;0.93;;;5.40;99.90;;;;;;5126132;28;20188;-81
2022/02/19 04:34:42;;;;;;;0.50;0.40;;;5.40;99.90;;;;;;5124530;28;20193;-80
2022/02/19 04:37:09;;;;;;;0.80;0.60;;;5.40;99.90;;;;;;5128142;28;20200;-79
2022/02/19 04:39:38;;;;;;;0.50;0.40;;;5.50;99.90;;;;;;5124935;28;20564;-80
2022/02/19 04:42:05;;;;;;;0.50;0.40;;;5.50;99.90;;;;;;5123347;27;20220;-79
2022/02/19 04:44:34;;;;;;;0.50;0.50;;;5.50;99.90;;;;;;5126402;28;20201;-79
2022/02/19 04:47:00;;;;;;;0.50;0.40;;;5.50;99.90;;;;;;5124684;28;20241;-79
2022/02/19 04:49:27;;;;;;;1.00;0.70;;;5.50;99.90;;;;;;5121953;28;20818;-79
2022/02/19 04:51:54;;;;;;;2.55;0.85;;;5.50;99.90;;;;;;5124955;28;20209;-80
2022/02/19 04:54:20;;;;;;;1.45;1.20;;;5.50;99.90;;;;;;5125194;28;20219;-78
2022/02/19 04:56:48;;;;;;;0.50;0.40;;;5.50;99.90;;;;;;5124094;28;20218;-78
2022/02/19 04:59:15;;;;;;;1.55;1.45;;;5.40;99.90;;;;;;5124044;28;20244;-78
2022/02/19 05:01:42;;;;;;;0.50;0.40;;;5.30;99.90;;;;;;5123868;28;20216;-80
2022/02/19 05:04:09;;;;;;;2.08;0.80;;;5.30;99.90;;;;;;5124963;28;20193;-80
2022/02/19 05:06:35;;;;;;;2.10;0.75;;;5.20;99.90;;;;;;5122297;28;20498;-79
2022/02/19 05:09:02;;;;;;;0.50;0.50;;;5.30;99.90;;;;;;5125691;28;20216;-80
2022/02/19 05:11:29;;;;;;;2.35;0.68;;;5.20;99.90;;;;;;5123432;27;20189;-79
2022/02/19 05:13:57;;;;;;;0.50;0.50;;;5.10;99.90;;;;;;5125283;28;20193;-80
2022/02/19 05:16:23;;;;;;;10.43;1.08;;;5.00;99.90;;;;;;5121875;27;20581;-78
2022/02/19 05:18:50;;;;;;;1.50;0.70;;;5.00;99.90;;;;;;5127226;27;20232;-79
2022/02/19 05:21:17;;;;;;;5.32;1.73;;;4.80;99.90;;;;;;5122176;28;20208;-80
2022/02/19 05:23:43;;;;;;;1.13;0.95;;;4.80;99.90;;;;;;5123091;28;20201;-79
2022/02/19 05:26:10;;;;;;;0.50;0.40;;;4.70;99.90;;;;;;5122172;27;20188;-79
2022/02/19 05:28:37;;;;;;;0.60;0.50;;;4.70;99.90;;;;;;5119069;28;20498;-78
2022/02/19 05:31:05;;;;;;;9.68;1.00;;;4.70;99.90;;;;;;5115543;28;20222;-79
2022/02/19 05:33:32;;;;;;;0.50;0.40;;;4.60;99.90;;;;;;5104605;22;20247;-78
2022/02/19 05:35:59;;;;;;;1.25;0.55;;;4.60;99.90;;;;;;5022085;28;20217;-78
2022/02/19 05:38:26;;;;;;;0.60;0.60;;;4.60;99.90;;;;;;5032408;28;20195;-79
2022/02/19 05:40:52;;;;;;;25.48;1.90;;;4.70;99.90;;;;;;5032093;28;20297;-78
2022/02/19 05:43:19;;;;;;;0.60;0.50;;;4.60;99.90;;;;;;5032462;28;20223;-77
2022/02/19 05:45:47;;;;;;;0.50;0.40;;;4.60;99.90;;;;;;5032236;28;20206;-77
2022/02/19 05:48:16;;;;;;;0.50;0.40;;;4.50;99.90;;;;;;5032679;28;20581;-76
2022/02/19 05:50:45;;;;;;;0.90;0.88;;;4.40;99.90;;;;;;5031704;28;20261;-78
2022/02/19 05:53:12;;;;;;;10.32;1.27;;;4.30;99.90;;;;;;5032219;28;20218;-78
2022/02/19 05:55:39;;;;;;;11.07;1.33;;;4.30;99.90;;;;;;5032235;28;20234;-78
2022/02/19 05:58:06;;;;;;;1.08;1.00;;;4.30;99.90;;;;;;5032750;28;20196;-79
2022/02/19 06:00:32;;;;;;;0.60;0.50;;;4.20;99.90;;;;;;5032110;28;20202;-78
2022/02/19 06:02:59;;;;;;;0.50;0.40;;;4.30;99.90;;;;;;5032269;28;20223;-78
2022/02/19 06:05:27;;;;;;;2.15;1.20;;;4.30;99.90;;;;;;5031592;28;20191;-80
2022/02/19 06:07:54;;;;;;;0.50;0.40;;;4.30;99.90;;;;;;5032081;28;20686;-80
2022/02/19 06:10:20;;;;;;;7.78;1.17;;;4.30;99.90;;;;;;5031867;28;20195;-79
2022/02/19 06:12:47;;;;;;;1.45;1.45;;;4.30;99.90;;;;;;5031995;28;20203;-79
2022/02/19 06:15:14;;;;;;;0.57;0.55;;;4.20;99.90;;;;;;5031735;28;20261;-78
2022/02/19 06:17:40;;;;;;;0.60;0.52;;;4.20;99.90;;;;;;5031963;28;20210;-79
2022/02/19 06:20:08;;;;;;;1.05;1.05;;;4.20;99.90;;;;;;5031409;28;20573;-78
2022/02/19 06:22:36;;;;;;;0.50;0.40;;;4.10;99.90;;;;;;5031885;28;20211;-77
2022/02/19 06:25:03;;;;;;;4.95;1.25;;;4.00;99.90;;;;;;5036084;28;20218;-80
2022/02/19 06:27:30;;;;;;;0.82;0.50;;;3.90;99.90;;;;;;5035920;28;20202;-79
2022/02/19 06:29:58;;;;;;;3.50;2.95;;;3.80;99.90;;;;;;5035846;28;20580;-79
2022/02/19 06:32:25;;;;;;;3.25;0.68;;;3.70;99.90;;;;;;5035783;28;20188;-79
2022/02/19 06:34:51;;;;;;;2.65;0.65;;;3.70;99.90;;;;;;5035400;28;20218;-80
2022/02/19 06:37:19;;;;;;;4.90;0.77;;;3.60;99.90;;;;;;5035894;28;20195;-79
2022/02/19 06:39:47;;;;;;;1.05;0.85;;;3.60;99.90;;;;;;5035149;28;20290;-79
2022/02/19 06:42:14;;;;;;;2.50;0.65;;;3.70;99.90;;;;;;5035203;28;20616;-78
2022/02/19 06:44:40;;;;;;;3.35;1.55;;;3.80;99.90;;;;;;5035887;28;20269;-78
2022/02/19 06:47:07;;;;;;;5.28;3.00;;;3.80;99.90;;;;;;5035116;28;20569;-77
2022/02/19 06:49:34;;;;;;;0.95;0.85;;;3.70;99.90;;;;;;5035065;28;20199;-77
2022/02/19 06:52:01;;;;;;;0.80;0.60;;;3.70;99.90;;;;;;5035079;28;20245;-77
2022/02/19 06:54:28;;;;;;;0.80;0.50;;;3.70;99.90;;;;;;5035153;28;20611;-77
2022/02/19 06:56:58;;;;;;;0.50;0.40;;;3.80;99.90;;;;;;5034946;28;20257;-77
2022/02/19 06:59:25;;;;;;;0.98;0.70;;;3.80;99.90;;;;;;5034766;28;20179;-77
2022/02/19 07:01:51;;;;;;;0.50;0.40;;;4.00;99.90;;;;;;5034763;28;20252;-78
2022/02/19 07:04:18;;;;;;;0.73;0.73;;;4.00;99.90;;;;;;5034507;28;20218;-77
2022/02/19 07:06:44;;;;;;;3.15;0.93;;;4.20;99.90;;;;;;5034794;28;20200;-77
2022/02/19 07:09:11;;;;;;;0.65;0.65;;;4.20;99.90;;;;;;5034733;28;20269;-77
2022/02/19 07:11:38;;;;;;;4.72;0.85;;;4.30;99.90;;;;;;5034571;28;20558;-79
2022/02/19 07:14:06;;;;;;;0.50;0.50;;;4.30;99.90;;;;;;5034571;28;20223;-77
2022/02/19 07:16:32;;;;;;;1.23;0.77;;;4.40;99.90;;;;;;5035063;28;20659;-78
2022/02/19 07:18:59;;;;;;;0.50;0.40;;;4.30;99.90;;;;;;5034464;28;20199;-75
2022/02/19 07:21:26;;;;;;;2.05;1.13;;;4.30;99.90;;;;;;5034664;28;20204;-77
2022/02/19 07:23:52;;;;;;;0.50;0.50;;;4.30;99.90;;;;;;5034288;28;20271;-77
2022/02/19 07:26:19;;;;;;;1.60;1.50;;;4.30;99.90;;;;;;5034221;28;20207;-78
2022/02/19 07:28:46;;;;;;;0.50;0.40;;;4.30;99.90;;;;;;5034203;28;20226;-79
2022/02/19 07:31:14;;;;;;;0.50;0.40;;;4.40;99.90;;;;;;5034019;28;20203;-77
2022/02/19 07:33:41;;;;;;;0.50;0.40;;;4.50;99.90;;;;;;5033877;28;20744;-75
2022/02/19 07:36:08;;;;;;;4.15;1.70;;;4.60;99.90;;;;;;5033667;28;20195;-79
2022/02/19 07:38:34;;;;;;;0.50;0.50;;;4.80;99.90;;;;;;5034467;28;20250;-77
2022/02/19 07:41:01;;;;;;;0.88;0.88;;;4.80;99.90;;;;;;5033905;28;20199;-77
2022/02/19 07:43:28;;;;;;;2.97;1.08;;;4.70;99.90;;;;;;5033677;28;20227;-79
2022/02/19 07:45:55;;;;;;;0.50;0.40;;;4.70;99.90;;;;;;5034096;28;20226;-77
2022/02/19 07:48:23;;;;;;;0.50;0.40;;;4.90;99.90;;;;;;5033209;28;20245;-77
2022/02/19 07:59:02;;;;;;;2.75;0.90;;;5.20;99.90;;;;;;5033883;28;20589;-77
2022/02/19 08:01:28;;;;;;;3.80;0.80;;;5.10;99.90;;;;;;5033809;28;20685;-77
2022/02/19 08:03:56;;;;;;;0.60;0.60;;;5.10;99.90;;;;;;5033541;28;20227;-77
2022/02/19 08:06:23;;;;;;;0.93;0.93;;;5.00;99.90;;;;;;5033479;28;20203;-77
2022/02/19 08:08:50;;;;;;;0.50;0.40;;;4.80;99.90;;;;;;5033779;28;20207;-77
2022/02/19 08:11:16;;;;;;;1.20;0.93;;;4.70;99.90;;;;;;5033107;28;20199;-78
2022/02/19 08:13:43;;;;;;;0.50;0.40;;;4.80;99.90;;;;;;5033496;28;20219;-74
2022/02/19 08:16:10;;;;;;;1.55;1.45;;;4.90;99.90;;;;;;5032876;28;20687;-77
2022/02/19 08:18:37;;;;;;;0.73;0.73;;;5.30;99.90;;;;;;5033448;28;20249;-77
2022/02/19 08:21:06;;;;;;;0.50;0.40;;;5.80;99.90;;;;;;5033235;28;20261;-75
2022/02/19 08:23:33;;;;;;;0.98;0.85;;;6.40;99.90;;;;;;5033608;28;20272;-78
2022/02/19 08:26:01;;;;;;;0.90;0.63;;;7.10;99.90;;;;;;5033203;28;20203;-77
2022/02/19 08:28:27;;;;;;;5.97;0.95;;;7.90;99.90;;;;;;5034672;28;20283;-78
2022/02/19 08:30:54;;;;;;;0.85;0.85;;;8.70;99.90;;;;;;5032335;28;20584;-77
2022/02/19 08:33:21;;;;;;;0.50;0.40;;;8.90;99.90;;;;;;5033053;28;20272;-79
2022/02/19 08:35:48;;;;;;;0.73;0.70;;;8.10;99.90;;;;;;5033210;28;20291;-77
2022/02/19 08:38:16;;;;;;;1.88;0.70;;;7.60;99.90;;;;;;5033359;28;20201;-77
2022/02/19 08:40:43;;;;;;;0.50;0.50;;;7.60;99.90;;;;;;5032626;28;20744;-77
2022/02/19 08:43:10;;;;;;;0.50;0.50;;;8.60;99.90;;;;;;5032591;28;20538;-79
2022/02/19 08:45:38;;;;;;;1.25;0.60;;;9.40;99.90;;;;;;5032355;28;20660;-77
2022/02/19 08:48:06;;;;;;;0.50;0.40;;;9.40;99.90;;;;;;5033048;28;20272;-77
2022/02/19 08:50:34;;;;;;;0.63;0.55;;;9.80;99.90;;;;;;5032797;28;20212;-78
2022/02/19 08:53:01;;;;;;;0.50;0.50;;;9.40;99.90;;;;;;5032743;28;20632;-78
2022/02/19 08:55:29;;;;;;;0.50;0.40;;;8.30;99.90;;;;;;5032950;28;20204;-77
2022/02/19 08:57:56;;;;;;;0.52;0.45;;;9.00;99.90;;;;;;5032420;28;20213;-77
2022/02/19 09:00:25;;;;;;;2.55;1.67;;;10.30;99.90;;;;;;5032449;28;20257;-77
2022/02/19 09:02:52;;;;;;;0.50;0.40;;;10.60;99.90;;;;;;5032541;28;20214;-78
2022/02/19 09:05:20;;;;;;;0.50;0.45;;;10.10;99.90;;;;;;5032484;28;20198;-77
2022/02/19 09:07:47;;;;;;;1.02;0.73;;;9.50;99.90;;;;;;5032074;28;20209;-77
2022/02/19 09:10:15;;;;;;;0.50;0.40;;;9.80;99.90;;;;;;5032432;28;20242;-79
2022/02/19 09:12:47;;;;;;;3.45;0.65;;;10.40;99.90;;;;;;5032048;28;20539;-77
2022/02/19 09:15:15;;;;;;;0.70;0.50;;;10.80;99.90;;;;;;5032385;28;20193;-77
2022/02/19 09:17:42;;;;;;;0.50;0.50;;;10.10;99.90;;;;;;5032133;28;20570;-77
2022/02/19 09:20:10;;;;;;;0.50;0.40;;;10.60;99.90;;;;;;5031681;28;20195;-77
2022/02/19 09:22:38;;;;;;;1.95;0.65;;;10.10;99.90;;;;;;5032234;28;20225;-76
2022/02/19 09:25:06;;;;;;;0.60;0.40;;;9.70;99.90;;;;;;5032626;28;20223;-77
2022/02/19 09:27:33;;;;;;;0.50;0.50;;;9.80;99.90;;;;;;5031814;28;20207;-77
2022/02/19 09:30:01;;;;;;;0.50;0.40;;;10.20;99.90;;;;;;5031971;28;20274;-77
2022/02/19 09:32:28;;;;;;;0.50;0.50;;;10.70;99.90;;;;;;5031795;28;20205;-77
2022/02/19 09:34:55;;;;;;;0.93;0.68;;;9.90;99.90;;;;;;5032076;28;20234;-76
2022/02/19 09:37:23;;;;;;;0.50;0.40;;;8.90;99.90;;;;;;5031899;28;20283;-77
2022/02/19 09:39:50;;;;;;;0.75;0.75;;;8.20;99.90;;;;;;5031868;28;20200;-78
2022/02/19 09:42:17;;;;;;;0.50;0.40;;;7.70;99.90;;;;;;5031621;28;20201;-78
2022/02/19 09:44:43;;;;;;;1.23;0.70;;;7.60;99.90;;;;;;5031553;28;20219;-74
2022/02/19 09:47:12;;;;;;;0.60;0.50;;;7.80;99.90;;;;;;5031986;28;20200;-78
2022/02/19 09:49:39;;;;;;;0.50;0.40;;;7.80;99.90;;;;;;5031622;28;20193;-77
2022/02/19 09:52:07;;;;;;;0.55;0.43;;;8.10;99.90;;;;;;5031900;28;20287;-77
2022/02/19 09:54:33;;;;;;;1.88;0.70;;;8.20;99.90;;;;;;5031105;28;20209;-77
2022/02/19 09:57:00;;;;;;;0.65;0.65;;;8.50;99.90;;;;;;5031797;28;20244;-76
2022/02/19 09:59:27;;;;;;;0.50;0.40;;;8.60;99.90;;;;;;5031126;28;20619;-78
2022/02/19 10:02:01;;;;;;;19.02;4.07;;;9.00;99.90;;;;;;5031549;28;20358;-75
2022/02/19 10:04:29;;;;;;;0.75;0.50;;;9.10;99.90;;;;;;5032189;28;20592;-78
2022/02/19 10:06:59;;;;;;;0.50;0.40;;;9.30;99.90;;;;;;5031758;28;20209;-78
2022/02/19 10:09:27;;;;;;;0.50;0.40;;;8.80;99.90;;;;;;5031060;28;20260;-77
2022/02/19 10:11:55;;;;;;;4.85;0.82;;;8.80;99.90;;;;;;5031923;28;20198;-74
2022/02/19 10:14:26;;;;;;;1.50;0.60;;;8.70;99.90;;;;;;5031459;28;20214;-77
2022/02/19 10:17:17;;;;;;;4.03;1.50;;;8.40;99.90;;;;;;5031928;28;20238;-77
2022/02/19 10:19:49;;;;;;;0.90;0.90;;;8.30;99.90;;;;;;5031259;28;20613;-79
2022/02/19 10:22:16;;;;;;;0.60;0.50;;;8.30;99.90;;;;;;5031145;28;20209;-77
2022/02/19 10:24:46;;;;;;;0.50;0.40;;;8.00;99.90;;;;;;5031284;28;20232;-77
2022/02/19 10:27:13;;;;;;;14.68;1.15;;;7.80;99.90;;;;;;5031378;28;20627;-77
2022/02/19 10:29:53;;;;;;;0.80;0.70;;;7.50;99.90;;;;;;5031533;28;20233;-77
2022/02/19 10:32:20;;;;;;;0.50;0.40;;;7.20;99.90;;;;;;5031361;28;20723;-78
2022/02/19 10:35:01;;;;;;;1.50;0.50;;;7.30;99.90;;;;;;5031183;28;20237;-75
2022/02/19 10:37:29;;;;;;;0.50;0.50;;;7.20;99.90;;;;;;5031482;28;20274;-78
2022/02/19 10:39:58;;;;;;;0.50;0.40;;;7.20;99.90;;;;;;5031423;28;20248;-78
2022/02/19 10:42:37;;;;;;;1.63;1.25;;;7.30;99.90;;;;;;5031694;28;20633;-77
2022/02/19 10:45:08;;;;;;;0.93;0.50;;;7.30;99.90;;;;;;5030909;28;20219;-77
2022/02/19 10:47:35;;;;;;;1.88;1.20;;;7.70;99.90;;;;;;5031998;28;20284;-78
2022/02/19 10:50:16;;;;;;;2.90;1.50;;;8.50;99.90;;;;;;5031045;28;20741;-77
2022/02/19 10:52:44;;;;;;;0.73;0.73;;;9.10;99.90;;;;;;5031576;28;20285;-77
2022/02/19 10:55:13;;;;;;;3.35;1.70;;;9.70;99.90;;;;;;5031198;28;20263;-78
2022/02/19 10:57:41;;;;;;;0.50;0.40;;;10.50;99.90;;;;;;5031104;28;20198;-77
2022/02/19 11:00:15;;;;;;;4.00;3.70;;;10.40;99.90;;;;;;5030939;28;20242;-77
2022/02/19 11:02:43;;;;;;;0.80;0.55;;;10.80;99.90;;;;;;5031151;28;20664;-75
2022/02/19 11:05:12;;;;;;;1.40;1.30;;;11.40;99.90;;;;;;5031183;28;20243;-78
2022/02/19 11:07:41;;;;;;;1.50;1.40;;;11.60;97.50;;;;;;5030903;28;20620;-76
2022/02/19 11:10:10;;;;;;;2.65;1.42;;;10.80;96.60;;;;;;5032051;28;20531;-76
2022/02/19 11:12:37;;;;;;;0.73;0.50;;;10.20;98.60;;;;;;5034768;28;20256;-77
2022/02/19 11:15:06;;;;;;;0.50;0.40;;;10.10;99.90;;;;;;5034334;28;20215;-77
2022/02/19 11:17:35;;;;;;;0.75;0.75;;;10.50;99.30;;;;;;5034939;28;20289;-78
2022/02/19 11:20:03;;;;;;;0.57;0.43;;;11.50;97.40;;;;;;5034155;28;20278;-77
2022/02/19 11:22:32;;;;;;;0.60;0.50;;;12.80;96.20;;;;;;5034577;28;20493;-78
2022/02/19 11:25:00;;;;;;;0.50;0.40;;;13.80;91.00;;;;;;5034125;28;20490;-77
2022/02/19 11:27:29;;;;;;;0.80;0.50;;;14.30;84.80;;;;;;5034259;28;20545;-78
2022/02/19 11:30:01;;;;;;;0.50;0.40;;;14.40;78.50;;;;;;5034453;28;20441;-77
2022/02/19 11:32:29;;;;;;;1.83;0.70;;;13.40;77.60;;;;;;5034439;28;20438;-77
2022/02/19 11:34:55;;;;;;;0.50;0.40;;;12.80;77.60;;;;;;5092609;22;20484;-78
2022/02/19 11:37:25;;;;;;;0.50;0.40;;;12.20;78.30;;;;;;5051855;28;20437;-79
2022/02/19 11:40:00;;;;;;;0.80;0.80;;;12.00;80.20;;;;;;5056793;28;20465;-77
2022/02/19 11:42:36;;;;;;;0.50;0.40;;;11.30;80.50;;;;;;5056937;28;20285;-79
2022/02/19 11:45:20;;;;;;;0.50;0.40;;;10.70;85.10;;;;;;5056829;28;20309;-78
2022/02/19 11:47:48;;;;;;;3.70;3.40;;;10.80;84.70;;;;;;5057560;28;20213;-78
2022/02/19 11:50:24;;;;;;;0.90;0.80;;;10.70;84.60;;;;;;5056774;28;20437;-78
2022/02/19 11:53:22;;;;;;;24.58;5.00;;;10.10;85.20;;;;;;5056978;28;20198;-77
2022/02/19 11:55:50;;;;;;;1.67;0.50;;;10.20;89.00;;;;;;5057085;28;20215;-78
2022/02/19 11:58:22;;;;;;;0.50;0.40;;;10.10;87.00;;;;;;5060919;28;20199;-78
2022/02/19 12:00:50;;;;;;;1.52;1.30;;;10.50;88.80;;;;;;5055410;28;20624;-76
2022/02/19 12:03:28;;;;;;;0.60;0.60;;;11.10;85.20;;;;;;5056615;28;20563;-78
2022/02/19 12:06:13;;;;;;;0.60;0.50;;;11.20;85.20;;;;;;5056567;28;20215;-78
2022/02/19 12:09:14;;;;;;;4.65;0.90;;;11.60;82.90;;;;;;5056547;28;20441;-77
2022/02/19 12:12:04;;;;;;;0.50;0.40;;;11.50;81.10;;;;;;5055982;28;20201;-77
2022/02/19 12:15:01;;;;;;;0.50;0.40;;;11.10;82.60;;;;;;5055907;28;20218;-78
2022/02/19 12:17:47;;;;;;;0.75;0.75;;;10.60;83.10;;;;;;5056058;28;20179;-78
2022/02/19 12:20:28;;;;;;;0.50;0.40;;;11.40;81.40;;;;;;5055296;28;20690;-77
2022/02/19 12:22:58;;;;;;;0.60;0.40;;;11.40;83.00;;;;;;5055742;28;20490;-77
2022/02/19 12:26:10;;;;;;;1.17;0.60;;;11.40;86.20;;;;;;5056044;28;20596;-77
2022/02/19 12:28:40;;;;;;;2.90;0.75;;;11.30;86.40;;;;;;5055359;28;20531;-77
2022/02/19 12:31:15;;;;;;;0.50;0.40;;;10.70;85.10;;;;;;5055047;28;20612;-77
2022/02/19 12:33:46;;;;;;;0.50;0.40;;;11.00;87.80;;;;;;5054604;28;20221;-78
2022/02/19 12:36:12;;;;;;;0.50;0.40;;;11.70;83.70;;;;;;5055168;28;20309;-77
2022/02/19 12:38:46;;;;;;;0.70;0.70;;;11.70;80.60;;;;;;5054630;28;20956;-78
2022/02/19 12:41:14;;;;;;;3.60;1.23;;;11.70;81.20;;;;;;5054669;28;20539;-78
2022/02/19 12:43:57;;;;;;;0.82;0.82;;;11.80;78.30;;;;;;5054783;28;20473;-77
2022/02/19 12:46:24;;;;;;;0.60;0.57;;;11.20;74.80;;;;;;5055904;28;20247;-77
2022/02/19 12:48:52;;;;;;;0.50;0.40;;;10.90;77.30;;;;;;5053820;28;20564;-77
2022/02/19 12:51:24;;;;;;;0.50;0.50;;;10.90;80.30;;;;;;5055214;28;20664;-77
2022/02/19 12:53:51;;;;;;;0.70;0.50;;;10.90;80.10;;;;;;5054180;28;20195;-78
2022/02/19 12:56:19;;;;;;;1.17;0.50;;;11.10;80.10;;;;;;5054545;28;20201;-77
2022/02/19 12:58:49;;;;;;;0.50;0.40;;;10.80;77.10;;;;;;5056054;28;20469;-76
2022/02/19 13:01:16;;;;;;;1.05;0.50;;;10.40;80.40;;;;;;5054654;28;20268;-77
2022/02/19 13:03:44;;;;;;;0.50;0.40;;;10.30;80.80;;;;;;5053410;28;20218;-77
2022/02/19 13:06:11;;;;;;;0.50;0.40;;;10.20;82.30;;;;;;5054286;28;20245;-78
2022/02/19 13:08:38;;;;;;;0.50;0.40;;;10.40;83.90;;;;;;5054164;28;20724;-78
2022/02/19 13:11:07;;;;;;;0.50;0.40;;;10.70;83.20;;;;;;5053121;28;20201;-78